Weather at Bologna Guglielmo Marconi Airport

Public forecast

Using degrees Celsius for public forecast. Weather courtesy of forecast.io.

Current aviation weather report (METAR) for Bologna Guglielmo Marconi Airport

Retrieved 2020/10/21 21:20 UTC (0 seconds ago):

LIPE 212120Z 19005KT CAVOK 11/09 Q1024

Aviation forecast (TAF) for Bologna Guglielmo Marconi Airport

Retrieved 2020/10/21 18:00 UTC (3 hours ago):

TAF LIPE 211700Z 2118/2218 VRB05KT 7000 NSC TEMPO 2200/2206 2000 BR